sensor_id;sensor_type;location;lat;lon;timestamp;pressure;altitude;pressure_sealevel;temperature;humidity
73671;BME280;61968;48.178;11.566;2022-07-30T00:00:30;95824.34;;;17.84;47.57
73671;BME280;61968;48.178;11.566;2022-07-30T00:02:57;95821.84;;;18.03;47.15
73671;BME280;61968;48.178;11.566;2022-07-30T00:05:23;95817.53;;;18.18;46.61
73671;BME280;61968;48.178;11.566;2022-07-30T00:07:50;95818.09;;;18.15;46.93
73671;BME280;61968;48.178;11.566;2022-07-30T00:10:17;95813.03;;;18.03;47.01
73671;BME280;61968;48.178;11.566;2022-07-30T00:12:45;95810.38;;;17.98;46.72
73671;BME280;61968;48.178;11.566;2022-07-30T00:15:13;95817.28;;;18.04;47.09
73671;BME280;61968;48.178;11.566;2022-07-30T00:17:40;95815.66;;;18.18;46.73
73671;BME280;61968;48.178;11.566;2022-07-30T00:20:07;95811.63;;;18.16;46.51
73671;BME280;61968;48.178;11.566;2022-07-30T00:22:34;95811.13;;;18.08;46.51
73671;BME280;61968;48.178;11.566;2022-07-30T00:25:00;95807.31;;;18.20;46.27
73671;BME280;61968;48.178;11.566;2022-07-30T00:27:27;95801.66;;;18.26;46.75
73671;BME280;61968;48.178;11.566;2022-07-30T00:29:55;95800.53;;;18.32;46.03
73671;BME280;61968;48.178;11.566;2022-07-30T00:32:23;95802.44;;;18.32;46.36
73671;BME280;61968;48.178;11.566;2022-07-30T00:34:49;95793.63;;;18.26;45.94
73671;BME280;61968;48.178;11.566;2022-07-30T00:37:16;95795.28;;;18.17;46.40
73671;BME280;61968;48.178;11.566;2022-07-30T00:39:42;95784.59;;;18.17;46.35
73671;BME280;61968;48.178;11.566;2022-07-30T00:42:09;95785.22;;;17.99;47.05
73671;BME280;61968;48.178;11.566;2022-07-30T00:44:35;95793.78;;;17.96;46.96
73671;BME280;61968;48.178;11.566;2022-07-30T00:47:02;95796.53;;;17.80;47.60
73671;BME280;61968;48.178;11.566;2022-07-30T00:49:30;95797.31;;;17.86;47.78
73671;BME280;61968;48.178;11.566;2022-07-30T00:51:56;95797.47;;;18.05;46.82
73671;BME280;61968;48.178;11.566;2022-07-30T00:54:23;95797.19;;;18.11;46.81
73671;BME280;61968;48.178;11.566;2022-07-30T00:56:49;95789.19;;;18.06;46.95
73671;BME280;61968;48.178;11.566;2022-07-30T00:59:16;95786.34;;;17.87;47.34
73671;BME280;61968;48.178;11.566;2022-07-30T01:01:42;95791.72;;;17.87;47.08
73671;BME280;61968;48.178;11.566;2022-07-30T01:04:09;95790.38;;;17.85;47.31
73671;BME280;61968;48.178;11.566;2022-07-30T01:06:38;95787.72;;;17.80;47.23
73671;BME280;61968;48.178;11.566;2022-07-30T01:09:04;95786.16;;;17.74;47.88
73671;BME280;61968;48.178;11.566;2022-07-30T01:11:35;95789.59;;;17.84;47.33
73671;BME280;61968;48.178;11.566;2022-07-30T01:14:02;95787.94;;;17.88;47.27
73671;BME280;61968;48.178;11.566;2022-07-30T01:16:29;95783.88;;;17.96;46.64
73671;BME280;61968;48.178;11.566;2022-07-30T01:18:57;95782.28;;;17.95;46.75
73671;BME280;61968;48.178;11.566;2022-07-30T01:21:45;95782.53;;;17.99;46.85
73671;BME280;61968;48.178;11.566;2022-07-30T01:24:21;95784.41;;;17.98;46.62
73671;BME280;61968;48.178;11.566;2022-07-30T01:26:53;95783.31;;;18.04;46.41
73671;BME280;61968;48.178;11.566;2022-07-30T01:29:21;95774.03;;;17.91;46.52
73671;BME280;61968;48.178;11.566;2022-07-30T01:31:49;95769.50;;;17.87;47.19
73671;BME280;61968;48.178;11.566;2022-07-30T01:34:20;95772.59;;;18.15;46.21
73671;BME280;61968;48.178;11.566;2022-07-30T01:36:49;95774.16;;;18.21;46.14
73671;BME280;61968;48.178;11.566;2022-07-30T01:39:16;95767.97;;;18.20;45.94
73671;BME280;61968;48.178;11.566;2022-07-30T01:41:45;95770.16;;;18.18;46.00
73671;BME280;61968;48.178;11.566;2022-07-30T01:44:15;95773.28;;;18.30;45.44
73671;BME280;61968;48.178;11.566;2022-07-30T01:46:42;95772.19;;;18.31;45.38
73671;BME280;61968;48.178;11.566;2022-07-30T01:49:10;95779.13;;;18.32;45.39
73671;BME280;61968;48.178;11.566;2022-07-30T01:51:37;95785.41;;;18.18;45.34
73671;BME280;61968;48.178;11.566;2022-07-30T01:54:06;95782.69;;;18.23;45.53
73671;BME280;61968;48.178;11.566;2022-07-30T01:56:34;95773.59;;;18.24;45.53
73671;BME280;61968;48.178;11.566;2022-07-30T01:59:03;95778.94;;;18.24;45.23
73671;BME280;61968;48.178;11.566;2022-07-30T02:01:32;95782.28;;;18.00;46.10
73671;BME280;61968;48.178;11.566;2022-07-30T02:03:59;95779.44;;;18.26;45.58
73671;BME280;61968;48.178;11.566;2022-07-30T02:06:31;95772.63;;;18.44;45.14
73671;BME280;61968;48.178;11.566;2022-07-30T02:09:00;95773.13;;;18.06;45.82
73671;BME280;61968;48.178;11.566;2022-07-30T02:11:29;95775.19;;;18.25;45.09
73671;BME280;61968;48.178;11.566;2022-07-30T02:14:19;95777.63;;;18.21;45.70
73671;BME280;61968;48.178;11.566;2022-07-30T02:16:49;95772.22;;;18.26;45.34
73671;BME280;61968;48.178;11.566;2022-07-30T02:19:19;95779.09;;;18.38;44.86
73671;BME280;61968;48.178;11.566;2022-07-30T02:21:48;95780.63;;;18.15;46.06
73671;BME280;61968;48.178;11.566;2022-07-30T02:24:20;95781.44;;;18.05;46.33
73671;BME280;61968;48.178;11.566;2022-07-30T02:26:54;95776.75;;;18.31;45.36
73671;BME280;61968;48.178;11.566;2022-07-30T02:29:22;95775.59;;;18.42;44.90
73671;BME280;61968;48.178;11.566;2022-07-30T02:31:52;95779.84;;;18.48;44.79
73671;BME280;61968;48.178;11.566;2022-07-30T02:34:20;95776.59;;;18.51;45.11
73671;BME280;61968;48.178;11.566;2022-07-30T02:36:48;95778.63;;;18.65;44.59
73671;BME280;61968;48.178;11.566;2022-07-30T02:39:16;95780.72;;;18.73;44.71
73671;BME280;61968;48.178;11.566;2022-07-30T02:41:45;95783.66;;;18.71;44.08
73671;BME280;61968;48.178;11.566;2022-07-30T02:44:14;95778.22;;;18.47;44.76
73671;BME280;61968;48.178;11.566;2022-07-30T02:46:43;95777.09;;;18.53;44.91
73671;BME280;61968;48.178;11.566;2022-07-30T02:49:13;95773.94;;;18.51;45.03
73671;BME280;61968;48.178;11.566;2022-07-30T02:51:40;95771.72;;;18.58;44.41
73671;BME280;61968;48.178;11.566;2022-07-30T02:54:08;95770.88;;;18.63;44.22
73671;BME280;61968;48.178;11.566;2022-07-30T02:56:35;95761.69;;;18.40;44.69
73671;BME280;61968;48.178;11.566;2022-07-30T02:59:05;95765.84;;;18.56;44.16
73671;BME280;61968;48.178;11.566;2022-07-30T03:01:32;95761.53;;;18.61;44.58
73671;BME280;61968;48.178;11.566;2022-07-30T03:04:01;95764.47;;;18.59;44.12
73671;BME280;61968;48.178;11.566;2022-07-30T03:06:29;95761.03;;;18.53;44.25
73671;BME280;61968;48.178;11.566;2022-07-30T03:08:58;95765.59;;;18.53;43.86
73671;BME280;61968;48.178;11.566;2022-07-30T03:11:27;95759.81;;;18.41;44.94
73671;BME280;61968;48.178;11.566;2022-07-30T03:13:54;95752.50;;;18.51;44.37
73671;BME280;61968;48.178;11.566;2022-07-30T03:16:22;95753.88;;;18.49;44.70
73671;BME280;61968;48.178;11.566;2022-07-30T03:18:52;95761.81;;;18.59;44.15
73671;BME280;61968;48.178;11.566;2022-07-30T03:21:22;95763.59;;;18.69;43.66
73671;BME280;61968;48.178;11.566;2022-07-30T03:23:54;95755.19;;;18.51;44.24
73671;BME280;61968;48.178;11.566;2022-07-30T03:26:22;95759.41;;;18.57;44.28
73671;BME280;61968;48.178;11.566;2022-07-30T03:28:50;95764.22;;;18.61;44.02
73671;BME280;61968;48.178;11.566;2022-07-30T03:31:17;95766.25;;;18.69;43.53
73671;BME280;61968;48.178;11.566;2022-07-30T03:33:43;95768.16;;;18.68;43.42
73671;BME280;61968;48.178;11.566;2022-07-30T03:36:12;95772.19;;;18.66;43.59
73671;BME280;61968;48.178;11.566;2022-07-30T03:38:41;95763.44;;;18.55;43.93
73671;BME280;61968;48.178;11.566;2022-07-30T03:41:10;95766.81;;;18.66;43.91
73671;BME280;61968;48.178;11.566;2022-07-30T03:43:37;95775.16;;;18.30;44.76
73671;BME280;61968;48.178;11.566;2022-07-30T03:46:06;95765.91;;;18.51;44.00
73671;BME280;61968;48.178;11.566;2022-07-30T03:48:33;95771.53;;;18.50;43.77
73671;BME280;61968;48.178;11.566;2022-07-30T03:51:01;95788.25;;;18.66;43.84
73671;BME280;61968;48.178;11.566;2022-07-30T03:53:28;95784.44;;;18.72;43.40
73671;BME280;61968;48.178;11.566;2022-07-30T03:55:55;95779.53;;;18.55;43.62
73671;BME280;61968;48.178;11.566;2022-07-30T03:58:23;95779.78;;;18.53;44.09
73671;BME280;61968;48.178;11.566;2022-07-30T04:00:50;95789.38;;;18.59;43.67
73671;BME280;61968;48.178;11.566;2022-07-30T04:03:23;95791.09;;;18.79;43.12
73671;BME280;61968;48.178;11.566;2022-07-30T04:05:50;95795.69;;;18.74;43.26
73671;BME280;61968;48.178;11.566;2022-07-30T04:08:17;95797.38;;;18.65;43.04
73671;BME280;61968;48.178;11.566;2022-07-30T04:10:44;95810.09;;;18.78;43.06
73671;BME280;61968;48.178;11.566;2022-07-30T04:13:11;95806.59;;;18.88;43.18
73671;BME280;61968;48.178;11.566;2022-07-30T04:15:44;95815.63;;;18.97;42.86
73671;BME280;61968;48.178;11.566;2022-07-30T04:18:14;95814.72;;;18.72;42.75
73671;BME280;61968;48.178;11.566;2022-07-30T04:20:43;95816.56;;;18.77;42.80
73671;BME280;61968;48.178;11.566;2022-07-30T04:23:11;95822.09;;;18.91;42.36
73671;BME280;61968;48.178;11.566;2022-07-30T04:25:41;95827.78;;;18.84;42.87
73671;BME280;61968;48.178;11.566;2022-07-30T04:28:09;95825.13;;;18.84;42.51
73671;BME280;61968;48.178;11.566;2022-07-30T04:30:36;95835.97;;;18.64;43.13
73671;BME280;61968;48.178;11.566;2022-07-30T04:33:04;95835.88;;;18.74;42.51
73671;BME280;61968;48.178;11.566;2022-07-30T04:35:32;95841.81;;;18.66;42.63
73671;BME280;61968;48.178;11.566;2022-07-30T04:37:59;95837.56;;;18.59;43.20
73671;BME280;61968;48.178;11.566;2022-07-30T04:40:27;95841.06;;;18.60;42.77
73671;BME280;61968;48.178;11.566;2022-07-30T04:42:54;95843.09;;;18.39;43.71
73671;BME280;61968;48.178;11.566;2022-07-30T04:45:20;95845.75;;;18.39;43.57
73671;BME280;61968;48.178;11.566;2022-07-30T04:47:47;95841.53;;;18.67;42.76
73671;BME280;61968;48.178;11.566;2022-07-30T04:50:16;95843.38;;;18.72;43.27
73671;BME280;61968;48.178;11.566;2022-07-30T04:52:46;95846.16;;;18.56;43.13
73671;BME280;61968;48.178;11.566;2022-07-30T04:55:13;95849.25;;;18.40;43.63
73671;BME280;61968;48.178;11.566;2022-07-30T04:57:41;95850.59;;;18.37;43.59
73671;BME280;61968;48.178;11.566;2022-07-30T05:00:08;95848.72;;;18.38;43.39
73671;BME280;61968;48.178;11.566;2022-07-30T05:02:36;95854.50;;;17.95;44.90
73671;BME280;61968;48.178;11.566;2022-07-30T05:05:07;95855.63;;;17.89;44.75
73671;BME280;61968;48.178;11.566;2022-07-30T05:07:36;95853.94;;;18.08;44.56
73671;BME280;61968;48.178;11.566;2022-07-30T05:10:04;95848.00;;;18.22;44.69
73671;BME280;61968;48.178;11.566;2022-07-30T05:12:31;95847.44;;;18.30;44.08
73671;BME280;61968;48.178;11.566;2022-07-30T05:14:58;95848.03;;;18.17;44.26
73671;BME280;61968;48.178;11.566;2022-07-30T05:17:24;95849.13;;;18.05;44.61
73671;BME280;61968;48.178;11.566;2022-07-30T05:19:51;95844.81;;;18.09;44.86
73671;BME280;61968;48.178;11.566;2022-07-30T05:22:18;95851.13;;;18.34;43.55
73671;BME280;61968;48.178;11.566;2022-07-30T05:24:45;95858.13;;;18.30;44.06
73671;BME280;61968;48.178;11.566;2022-07-30T05:27:12;95859.84;;;18.55;43.19
73671;BME280;61968;48.178;11.566;2022-07-30T05:29:38;95865.31;;;18.79;42.83
73671;BME280;61968;48.178;11.566;2022-07-30T05:32:05;95867.41;;;18.87;42.51
73671;BME280;61968;48.178;11.566;2022-07-30T05:34:32;95864.78;;;18.82;42.97
73671;BME280;61968;48.178;11.566;2022-07-30T05:36:58;95865.97;;;19.00;42.51
73671;BME280;61968;48.178;11.566;2022-07-30T05:39:25;95862.53;;;18.94;42.46
73671;BME280;61968;48.178;11.566;2022-07-30T05:41:53;95868.31;;;19.07;42.20
73671;BME280;61968;48.178;11.566;2022-07-30T05:44:20;95873.38;;;19.08;42.04
73671;BME280;61968;48.178;11.566;2022-07-30T05:46:46;95866.19;;;19.03;42.50
73671;BME280;61968;48.178;11.566;2022-07-30T05:49:13;95874.13;;;19.14;42.22
73671;BME280;61968;48.178;11.566;2022-07-30T05:51:40;95883.38;;;19.02;42.07
73671;BME280;61968;48.178;11.566;2022-07-30T05:54:07;95874.72;;;19.11;42.05
73671;BME280;61968;48.178;11.566;2022-07-30T05:56:33;95877.88;;;18.39;43.44
73671;BME280;61968;48.178;11.566;2022-07-30T05:59:01;95874.03;;;18.55;43.04
73671;BME280;61968;48.178;11.566;2022-07-30T06:01:28;95884.19;;;18.58;43.22
73671;BME280;61968;48.178;11.566;2022-07-30T06:03:54;95890.47;;;18.78;42.69
73671;BME280;61968;48.178;11.566;2022-07-30T06:06:21;95884.75;;;18.55;43.00
73671;BME280;61968;48.178;11.566;2022-07-30T06:08:47;95886.22;;;18.72;43.06
73671;BME280;61968;48.178;11.566;2022-07-30T06:11:14;95891.56;;;18.82;42.77
73671;BME280;61968;48.178;11.566;2022-07-30T06:13:41;95900.91;;;18.85;42.39
73671;BME280;61968;48.178;11.566;2022-07-30T06:16:10;95898.06;;;19.05;41.96
73671;BME280;61968;48.178;11.566;2022-07-30T06:18:36;95899.31;;;18.78;42.63
73671;BME280;61968;48.178;11.566;2022-07-30T06:21:05;95904.94;;;18.77;42.55
73671;BME280;61968;48.178;11.566;2022-07-30T06:23:32;95902.00;;;18.78;42.58
73671;BME280;61968;48.178;11.566;2022-07-30T06:25:58;95907.84;;;18.41;43.78
73671;BME280;61968;48.178;11.566;2022-07-30T06:28:25;95901.53;;;18.22;44.12
73671;BME280;61968;48.178;11.566;2022-07-30T06:30:51;95909.88;;;18.59;43.44
73671;BME280;61968;48.178;11.566;2022-07-30T06:33:19;95914.03;;;18.81;42.67
73671;BME280;61968;48.178;11.566;2022-07-30T06:35:46;95912.72;;;18.78;43.42
73671;BME280;61968;48.178;11.566;2022-07-30T06:38:13;95920.16;;;18.42;43.85
73671;BME280;61968;48.178;11.566;2022-07-30T06:40:39;95921.75;;;18.43;44.29
73671;BME280;61968;48.178;11.566;2022-07-30T06:43:06;95920.09;;;18.52;43.94
73671;BME280;61968;48.178;11.566;2022-07-30T06:45:32;95930.25;;;18.55;44.15
73671;BME280;61968;48.178;11.566;2022-07-30T06:47:59;95937.75;;;18.53;44.13
73671;BME280;61968;48.178;11.566;2022-07-30T06:50:27;95936.88;;;18.13;45.01
73671;BME280;61968;48.178;11.566;2022-07-30T06:52:54;95932.16;;;18.50;44.52
73671;BME280;61968;48.178;11.566;2022-07-30T06:55:21;95938.44;;;18.74;43.69
73671;BME280;61968;48.178;11.566;2022-07-30T06:57:48;95937.25;;;18.96;43.05
73671;BME280;61968;48.178;11.566;2022-07-30T07:00:14;95939.94;;;18.96;43.32
73671;BME280;61968;48.178;11.566;2022-07-30T07:02:42;95934.41;;;18.77;43.74
73671;BME280;61968;48.178;11.566;2022-07-30T07:05:09;95938.84;;;18.47;44.63
73671;BME280;61968;48.178;11.566;2022-07-30T07:07:37;95934.59;;;18.41;44.76
73671;BME280;61968;48.178;11.566;2022-07-30T07:10:05;95939.41;;;18.44;44.05
73671;BME280;61968;48.178;11.566;2022-07-30T07:12:32;95938.84;;;18.47;44.03
73671;BME280;61968;48.178;11.566;2022-07-30T07:14:59;95931.44;;;18.39;44.06
73671;BME280;61968;48.178;11.566;2022-07-30T07:17:25;95948.09;;;18.21;44.95
73671;BME280;61968;48.178;11.566;2022-07-30T07:19:52;95935.31;;;17.92;45.13
73671;BME280;61968;48.178;11.566;2022-07-30T07:22:18;95939.13;;;17.71;45.21
73671;BME280;61968;48.178;11.566;2022-07-30T07:24:46;95936.34;;;18.11;44.46
73671;BME280;61968;48.178;11.566;2022-07-30T07:27:12;95938.31;;;18.50;44.38
73671;BME280;61968;48.178;11.566;2022-07-30T07:29:39;95944.16;;;17.87;45.43
73671;BME280;61968;48.178;11.566;2022-07-30T07:32:06;95937.25;;;18.51;43.77
73671;BME280;61968;48.178;11.566;2022-07-30T07:34:33;95935.78;;;18.09;44.79
73671;BME280;61968;48.178;11.566;2022-07-30T07:36:59;95940.94;;;18.61;43.95
73671;BME280;61968;48.178;11.566;2022-07-30T07:39:26;95928.03;;;18.08;45.00
73671;BME280;61968;48.178;11.566;2022-07-30T07:41:54;95925.69;;;18.56;43.38
73671;BME280;61968;48.178;11.566;2022-07-30T07:44:21;95926.56;;;18.46;43.78
73671;BME280;61968;48.178;11.566;2022-07-30T07:46:47;95931.25;;;18.70;42.90
73671;BME280;61968;48.178;11.566;2022-07-30T07:49:13;95924.97;;;18.40;43.75
73671;BME280;61968;48.178;11.566;2022-07-30T07:51:40;95927.00;;;18.64;43.51
73671;BME280;61968;48.178;11.566;2022-07-30T07:54:06;95929.06;;;18.72;43.31
73671;BME280;61968;48.178;11.566;2022-07-30T07:56:33;95923.72;;;18.72;43.79
73671;BME280;61968;48.178;11.566;2022-07-30T07:59:01;95924.63;;;19.01;43.17
73671;BME280;61968;48.178;11.566;2022-07-30T08:01:27;95926.69;;;19.15;42.41
73671;BME280;61968;48.178;11.566;2022-07-30T08:03:54;95917.44;;;19.26;41.77
73671;BME280;61968;48.178;11.566;2022-07-30T08:06:20;95931.91;;;19.30;41.88
73671;BME280;61968;48.178;11.566;2022-07-30T08:08:47;95924.34;;;19.37;41.89
73671;BME280;61968;48.178;11.566;2022-07-30T08:11:13;95924.56;;;19.41;41.30
73671;BME280;61968;48.178;11.566;2022-07-30T08:13:40;95926.13;;;19.47;40.49
73671;BME280;61968;48.178;11.566;2022-07-30T08:16:08;95928.94;;;19.32;41.64
73671;BME280;61968;48.178;11.566;2022-07-30T08:18:35;95947.91;;;19.40;40.57
73671;BME280;61968;48.178;11.566;2022-07-30T08:21:02;95938.28;;;19.39;41.02
73671;BME280;61968;48.178;11.566;2022-07-30T08:23:29;95946.34;;;19.34;41.03
73671;BME280;61968;48.178;11.566;2022-07-30T08:25:55;95948.50;;;19.32;41.48
73671;BME280;61968;48.178;11.566;2022-07-30T08:28:22;95939.47;;;19.57;40.69
73671;BME280;61968;48.178;11.566;2022-07-30T08:30:49;95935.84;;;19.72;39.43
73671;BME280;61968;48.178;11.566;2022-07-30T08:33:17;95932.91;;;19.68;40.67
73671;BME280;61968;48.178;11.566;2022-07-30T08:35:44;95936.00;;;19.81;39.21
73671;BME280;61968;48.178;11.566;2022-07-30T08:38:11;95932.13;;;19.68;40.47
73671;BME280;61968;48.178;11.566;2022-07-30T08:40:38;95943.00;;;19.82;39.96
73671;BME280;61968;48.178;11.566;2022-07-30T08:43:06;95941.41;;;19.52;40.04
73671;BME280;61968;48.178;11.566;2022-07-30T08:45:33;95939.28;;;19.43;40.72
73671;BME280;61968;48.178;11.566;2022-07-30T08:48:01;95935.88;;;19.67;39.87
73671;BME280;61968;48.178;11.566;2022-07-30T08:50:29;95938.41;;;19.82;39.86
73671;BME280;61968;48.178;11.566;2022-07-30T08:52:56;95944.50;;;19.64;40.22
73671;BME280;61968;48.178;11.566;2022-07-30T08:55:24;95938.63;;;19.62;39.82
73671;BME280;61968;48.178;11.566;2022-07-30T08:57:50;95939.09;;;19.69;38.22
73671;BME280;61968;48.178;11.566;2022-07-30T09:00:17;95940.41;;;19.37;38.84
73671;BME280;61968;48.178;11.566;2022-07-30T09:02:45;95938.19;;;19.49;39.68
73671;BME280;61968;48.178;11.566;2022-07-30T09:05:12;95939.91;;;19.69;39.83
73671;BME280;61968;48.178;11.566;2022-07-30T09:07:40;95945.09;;;19.85;39.45
73671;BME280;61968;48.178;11.566;2022-07-30T09:10:08;95950.13;;;19.91;39.25
73671;BME280;61968;48.178;11.566;2022-07-30T09:12:38;95935.72;;;19.82;39.00
73671;BME280;61968;48.178;11.566;2022-07-30T09:15:07;95945.53;;;19.68;39.23
73671;BME280;61968;48.178;11.566;2022-07-30T09:17:49;95934.59;;;19.88;38.97
73671;BME280;61968;48.178;11.566;2022-07-30T09:20:17;95934.16;;;20.05;38.46
73671;BME280;61968;48.178;11.566;2022-07-30T09:22:47;95930.56;;;20.15;38.08
73671;BME280;61968;48.178;11.566;2022-07-30T09:25:14;95934.50;;;20.23;37.63
73671;BME280;61968;48.178;11.566;2022-07-30T09:27:44;95940.59;;;20.28;37.50
73671;BME280;61968;48.178;11.566;2022-07-30T09:30:11;95937.34;;;20.31;36.85
73671;BME280;61968;48.178;11.566;2022-07-30T09:32:49;95930.25;;;19.92;36.36
73671;BME280;61968;48.178;11.566;2022-07-30T09:35:16;95931.88;;;20.17;36.44
73671;BME280;61968;48.178;11.566;2022-07-30T09:37:45;95934.97;;;20.30;36.52
73671;BME280;61968;48.178;11.566;2022-07-30T09:40:13;95944.81;;;20.34;36.93
73671;BME280;61968;48.178;11.566;2022-07-30T09:42:41;95934.03;;;20.15;35.86
73671;BME280;61968;48.178;11.566;2022-07-30T09:45:09;95936.66;;;19.97;35.84
73671;BME280;61968;48.178;11.566;2022-07-30T09:47:39;95932.19;;;20.11;36.55
73671;BME280;61968;48.178;11.566;2022-07-30T09:50:07;95939.75;;;20.09;36.42
73671;BME280;61968;48.178;11.566;2022-07-30T09:52:35;95948.16;;;20.02;35.63
73671;BME280;61968;48.178;11.566;2022-07-30T09:55:04;95935.53;;;20.27;35.46
73671;BME280;61968;48.178;11.566;2022-07-30T09:57:31;95940.34;;;20.49;32.86
73671;BME280;61968;48.178;11.566;2022-07-30T10:00:15;95935.34;;;20.61;34.49
73671;BME280;61968;48.178;11.566;2022-07-30T10:02:42;95930.41;;;20.68;34.23
73671;BME280;61968;48.178;11.566;2022-07-30T10:05:09;95950.59;;;20.66;34.11
73671;BME280;61968;48.178;11.566;2022-07-30T10:07:37;95946.94;;;20.37;32.92
73671;BME280;61968;48.178;11.566;2022-07-30T10:10:06;95950.50;;;20.33;33.79
73671;BME280;61968;48.178;11.566;2022-07-30T10:12:33;95939.28;;;20.26;33.34
73671;BME280;61968;48.178;11.566;2022-07-30T10:15:01;95934.97;;;20.30;33.13
73671;BME280;61968;48.178;11.566;2022-07-30T10:17:29;95942.59;;;20.42;33.62
73671;BME280;61968;48.178;11.566;2022-07-30T10:19:57;95940.28;;;20.54;32.02
73671;BME280;61968;48.178;11.566;2022-07-30T10:22:23;95939.63;;;20.43;32.02
73671;BME280;61968;48.178;11.566;2022-07-30T10:24:50;95930.75;;;20.43;33.11
73671;BME280;61968;48.178;11.566;2022-07-30T10:27:19;95940.16;;;20.21;31.58
73671;BME280;61968;48.178;11.566;2022-07-30T10:29:48;95942.81;;;19.97;32.15
73671;BME280;61968;48.178;11.566;2022-07-30T10:32:15;95941.16;;;20.01;31.78
73671;BME280;61968;48.178;11.566;2022-07-30T10:34:42;95939.22;;;20.07;32.31
73671;BME280;61968;48.178;11.566;2022-07-30T10:37:12;95936.13;;;19.94;31.65
73671;BME280;61968;48.178;11.566;2022-07-30T10:39:44;95937.13;;;20.28;32.19
73671;BME280;61968;48.178;11.566;2022-07-30T10:42:24;95941.31;;;20.10;32.29
73671;BME280;61968;48.178;11.566;2022-07-30T10:45:06;95942.88;;;20.40;31.76
73671;BME280;61968;48.178;11.566;2022-07-30T10:47:38;95949.94;;;20.74;30.93
73671;BME280;61968;48.178;11.566;2022-07-30T10:50:09;95936.34;;;19.98;30.65
73671;BME280;61968;48.178;11.566;2022-07-30T10:52:42;95942.25;;;19.76;31.14
73671;BME280;61968;48.178;11.566;2022-07-30T10:55:12;95940.22;;;19.87;31.61
73671;BME280;61968;48.178;11.566;2022-07-30T10:58:00;95943.88;;;20.25;30.96
73671;BME280;61968;48.178;11.566;2022-07-30T11:00:28;95946.69;;;20.15;29.96
73671;BME280;61968;48.178;11.566;2022-07-30T11:03:19;95938.75;;;19.76;31.00
73671;BME280;61968;48.178;11.566;2022-07-30T11:05:48;95935.94;;;19.62;31.27
73671;BME280;61968;48.178;11.566;2022-07-30T11:08:32;95938.03;;;19.65;31.84
73671;BME280;61968;48.178;11.566;2022-07-30T11:10:59;95942.47;;;20.04;30.40
73671;BME280;61968;48.178;11.566;2022-07-30T11:13:49;95932.44;;;19.90;30.80
73671;BME280;61968;48.178;11.566;2022-07-30T11:16:17;95930.56;;;20.15;30.00
73671;BME280;61968;48.178;11.566;2022-07-30T11:19:08;95933.50;;;19.89;30.87
73671;BME280;61968;48.178;11.566;2022-07-30T11:21:36;95933.44;;;19.94;30.71
73671;BME280;61968;48.178;11.566;2022-07-30T11:24:04;95933.91;;;20.26;30.76
73671;BME280;61968;48.178;11.566;2022-07-30T11:26:49;95938.97;;;20.32;30.34
73671;BME280;61968;48.178;11.566;2022-07-30T11:29:34;95940.13;;;20.64;30.05
73671;BME280;61968;48.178;11.566;2022-07-30T11:32:25;95931.19;;;20.31;29.49
73671;BME280;61968;48.178;11.566;2022-07-30T11:35:11;95929.75;;;20.38;30.18
73671;BME280;61968;48.178;11.566;2022-07-30T11:37:56;95932.28;;;20.30;30.55
73671;BME280;61968;48.178;11.566;2022-07-30T11:40:24;95934.03;;;20.39;30.56
73671;BME280;61968;48.178;11.566;2022-07-30T11:42:52;95933.91;;;20.69;30.23
73671;BME280;61968;48.178;11.566;2022-07-30T11:45:39;95940.22;;;20.11;30.53
73671;BME280;61968;48.178;11.566;2022-07-30T11:48:10;95931.28;;;20.45;30.96
73671;BME280;61968;48.178;11.566;2022-07-30T11:50:37;95930.75;;;20.43;29.72
73671;BME280;61968;48.178;11.566;2022-07-30T11:53:05;95934.75;;;20.64;30.36
73671;BME280;61968;48.178;11.566;2022-07-30T11:55:33;95929.56;;;20.92;29.88
73671;BME280;61968;48.178;11.566;2022-07-30T11:58:02;95928.47;;;21.12;29.15
73671;BME280;61968;48.178;11.566;2022-07-30T12:00:36;95933.00;;;21.30;29.40
73671;BME280;61968;48.178;11.566;2022-07-30T12:03:09;95926.22;;;21.51;29.23
73671;BME280;61968;48.178;11.566;2022-07-30T12:05:37;95923.03;;;21.63;28.97
73671;BME280;61968;48.178;11.566;2022-07-30T12:08:04;95935.88;;;21.52;28.51
73671;BME280;61968;48.178;11.566;2022-07-30T12:10:31;95928.19;;;21.46;28.72
73671;BME280;61968;48.178;11.566;2022-07-30T12:13:07;95930.72;;;21.70;28.69
73671;BME280;61968;48.178;11.566;2022-07-30T12:15:36;95920.22;;;21.54;27.41
73671;BME280;61968;48.178;11.566;2022-07-30T12:18:03;95940.34;;;21.24;28.29
73671;BME280;61968;48.178;11.566;2022-07-30T12:20:31;95936.03;;;21.42;27.83
73671;BME280;61968;48.178;11.566;2022-07-30T12:22:57;95936.94;;;21.19;26.27
73671;BME280;61968;48.178;11.566;2022-07-30T12:25:24;95934.06;;;20.96;26.21
73671;BME280;61968;48.178;11.566;2022-07-30T12:27:52;95935.38;;;21.31;26.22
73671;BME280;61968;48.178;11.566;2022-07-30T12:30:19;95946.56;;;21.39;25.84
73671;BME280;61968;48.178;11.566;2022-07-30T12:32:46;95930.13;;;21.07;26.64
73671;BME280;61968;48.178;11.566;2022-07-30T12:35:13;95944.41;;;20.65;26.63
73671;BME280;61968;48.178;11.566;2022-07-30T12:38:00;95923.81;;;21.17;26.48
73671;BME280;61968;48.178;11.566;2022-07-30T12:40:28;95931.31;;;21.67;26.52
73671;BME280;61968;48.178;11.566;2022-07-30T12:42:54;95923.75;;;21.69;24.26
73671;BME280;61968;48.178;11.566;2022-07-30T12:45:28;95931.00;;;21.54;24.61
73671;BME280;61968;48.178;11.566;2022-07-30T12:47:54;95926.31;;;21.27;25.27
73671;BME280;61968;48.178;11.566;2022-07-30T12:50:22;95926.22;;;21.65;24.40
73671;BME280;61968;48.178;11.566;2022-07-30T12:52:51;95919.47;;;21.82;24.89
73671;BME280;61968;48.178;11.566;2022-07-30T12:55:26;95917.97;;;21.89;25.54
73671;BME280;61968;48.178;11.566;2022-07-30T12:57:55;95919.38;;;22.00;24.99